sensor_id;sensor_type;location;lat;lon;timestamp;P1;durP1;ratioP1;P2;durP2;ratioP2
29720;SDS011;23665;51.044;3.748;2022-09-02T00:00:54;8.07;;;1.73;;
29720;SDS011;23665;51.044;3.748;2022-09-02T00:03:24;6.47;;;2.17;;
29720;SDS011;23665;51.044;3.748;2022-09-02T00:05:50;8.10;;;2.13;;
29720;SDS011;23665;51.044;3.748;2022-09-02T00:08:16;13.90;;;2.13;;
29720;SDS011;23665;51.044;3.748;2022-09-02T00:10:42;4.37;;;2.10;;
29720;SDS011;23665;51.044;3.748;2022-09-02T00:13:09;5.67;;;2.27;;
29720;SDS011;23665;51.044;3.748;2022-09-02T00:15:37;9.33;;;2.13;;
29720;SDS011;23665;51.044;3.748;2022-09-02T00:18:03;6.23;;;2.13;;
29720;SDS011;23665;51.044;3.748;2022-09-02T00:20:31;6.90;;;2.03;;
29720;SDS011;23665;51.044;3.748;2022-09-02T00:22:57;4.47;;;1.77;;
29720;SDS011;23665;51.044;3.748;2022-09-02T00:25:24;7.30;;;1.90;;
29720;SDS011;23665;51.044;3.748;2022-09-02T00:27:49;8.50;;;1.67;;
29720;SDS011;23665;51.044;3.748;2022-09-02T00:30:15;9.00;;;2.17;;
29720;SDS011;23665;51.044;3.748;2022-09-02T00:32:41;6.50;;;2.57;;
29720;SDS011;23665;51.044;3.748;2022-09-02T00:35:07;4.57;;;1.70;;
29720;SDS011;23665;51.044;3.748;2022-09-02T00:37:34;8.87;;;2.07;;
29720;SDS011;23665;51.044;3.748;2022-09-02T00:40:00;6.87;;;1.83;;
29720;SDS011;23665;51.044;3.748;2022-09-02T00:42:27;10.70;;;1.73;;
29720;SDS011;23665;51.044;3.748;2022-09-02T00:44:52;6.23;;;2.27;;
29720;SDS011;23665;51.044;3.748;2022-09-02T00:47:18;6.30;;;2.03;;
29720;SDS011;23665;51.044;3.748;2022-09-02T00:49:46;6.77;;;2.00;;
29720;SDS011;23665;51.044;3.748;2022-09-02T00:52:16;6.57;;;1.93;;
29720;SDS011;23665;51.044;3.748;2022-09-02T00:54:46;7.93;;;2.30;;
29720;SDS011;23665;51.044;3.748;2022-09-02T00:57:16;6.63;;;2.53;;
29720;SDS011;23665;51.044;3.748;2022-09-02T01:02:21;8.70;;;2.37;;
29720;SDS011;23665;51.044;3.748;2022-09-02T01:04:49;7.03;;;2.30;;
29720;SDS011;23665;51.044;3.748;2022-09-02T01:07:15;4.33;;;1.90;;
29720;SDS011;23665;51.044;3.748;2022-09-02T01:09:41;7.10;;;2.00;;
29720;SDS011;23665;51.044;3.748;2022-09-02T01:12:07;8.27;;;2.40;;
29720;SDS011;23665;51.044;3.748;2022-09-02T01:14:33;6.53;;;2.40;;
29720;SDS011;23665;51.044;3.748;2022-09-02T01:16:59;5.73;;;2.40;;
29720;SDS011;23665;51.044;3.748;2022-09-02T01:19:37;9.10;;;1.97;;
29720;SDS011;23665;51.044;3.748;2022-09-02T01:22:14;7.50;;;3.10;;
29720;SDS011;23665;51.044;3.748;2022-09-02T01:24:45;10.87;;;3.17;;
29720;SDS011;23665;51.044;3.748;2022-09-02T01:27:13;9.13;;;2.70;;
29720;SDS011;23665;51.044;3.748;2022-09-02T01:29:41;10.43;;;2.70;;
29720;SDS011;23665;51.044;3.748;2022-09-02T01:32:07;8.13;;;2.67;;
29720;SDS011;23665;51.044;3.748;2022-09-02T01:34:32;8.40;;;2.50;;
29720;SDS011;23665;51.044;3.748;2022-09-02T01:36:58;5.23;;;2.43;;
29720;SDS011;23665;51.044;3.748;2022-09-02T01:39:23;6.60;;;2.37;;
29720;SDS011;23665;51.044;3.748;2022-09-02T01:41:49;8.87;;;2.67;;
29720;SDS011;23665;51.044;3.748;2022-09-02T01:44:15;6.47;;;2.90;;
29720;SDS011;23665;51.044;3.748;2022-09-02T01:46:41;8.80;;;2.87;;
29720;SDS011;23665;51.044;3.748;2022-09-02T01:49:08;8.70;;;2.70;;
29720;SDS011;23665;51.044;3.748;2022-09-02T01:51:34;7.03;;;2.60;;
29720;SDS011;23665;51.044;3.748;2022-09-02T01:54:00;5.53;;;2.17;;
29720;SDS011;23665;51.044;3.748;2022-09-02T01:56:26;15.17;;;3.23;;
29720;SDS011;23665;51.044;3.748;2022-09-02T01:58:52;11.63;;;3.13;;
29720;SDS011;23665;51.044;3.748;2022-09-02T02:01:18;8.37;;;3.30;;
29720;SDS011;23665;51.044;3.748;2022-09-02T02:03:44;6.47;;;2.93;;
29720;SDS011;23665;51.044;3.748;2022-09-02T02:06:10;6.67;;;3.30;;
29720;SDS011;23665;51.044;3.748;2022-09-02T02:08:39;6.37;;;2.93;;
29720;SDS011;23665;51.044;3.748;2022-09-02T02:11:05;7.70;;;2.90;;
29720;SDS011;23665;51.044;3.748;2022-09-02T02:13:31;11.37;;;2.73;;
29720;SDS011;23665;51.044;3.748;2022-09-02T02:15:57;5.37;;;2.83;;
29720;SDS011;23665;51.044;3.748;2022-09-02T02:18:23;8.73;;;2.87;;
29720;SDS011;23665;51.044;3.748;2022-09-02T02:20:49;7.83;;;2.90;;
29720;SDS011;23665;51.044;3.748;2022-09-02T02:23:14;10.77;;;3.33;;
29720;SDS011;23665;51.044;3.748;2022-09-02T02:25:41;7.43;;;2.67;;
29720;SDS011;23665;51.044;3.748;2022-09-02T02:28:07;15.63;;;4.10;;
29720;SDS011;23665;51.044;3.748;2022-09-02T02:30:32;6.60;;;2.97;;
29720;SDS011;23665;51.044;3.748;2022-09-02T02:32:58;10.07;;;2.83;;
29720;SDS011;23665;51.044;3.748;2022-09-02T02:35:24;7.17;;;2.90;;
29720;SDS011;23665;51.044;3.748;2022-09-02T02:37:50;7.20;;;3.37;;
29720;SDS011;23665;51.044;3.748;2022-09-02T02:40:17;10.07;;;2.70;;
29720;SDS011;23665;51.044;3.748;2022-09-02T02:42:44;7.57;;;3.10;;
29720;SDS011;23665;51.044;3.748;2022-09-02T02:45:10;13.23;;;3.33;;
29720;SDS011;23665;51.044;3.748;2022-09-02T02:47:40;11.03;;;3.87;;
29720;SDS011;23665;51.044;3.748;2022-09-02T02:50:11;8.30;;;3.43;;
29720;SDS011;23665;51.044;3.748;2022-09-02T02:52:39;8.30;;;3.27;;
29720;SDS011;23665;51.044;3.748;2022-09-02T02:55:06;6.57;;;3.30;;
29720;SDS011;23665;51.044;3.748;2022-09-02T02:57:33;9.33;;;3.30;;
29720;SDS011;23665;51.044;3.748;2022-09-02T03:00:07;11.77;;;3.70;;
29720;SDS011;23665;51.044;3.748;2022-09-02T03:02:36;10.57;;;3.63;;
29720;SDS011;23665;51.044;3.748;2022-09-02T03:05:03;6.37;;;3.67;;
29720;SDS011;23665;51.044;3.748;2022-09-02T03:07:30;9.87;;;3.50;;
29720;SDS011;23665;51.044;3.748;2022-09-02T03:09:55;8.93;;;3.63;;
29720;SDS011;23665;51.044;3.748;2022-09-02T03:12:21;7.93;;;3.63;;
29720;SDS011;23665;51.044;3.748;2022-09-02T03:14:47;8.57;;;3.70;;
29720;SDS011;23665;51.044;3.748;2022-09-02T03:17:14;13.07;;;3.30;;
29720;SDS011;23665;51.044;3.748;2022-09-02T03:19:39;9.73;;;3.80;;
29720;SDS011;23665;51.044;3.748;2022-09-02T03:22:05;11.83;;;3.67;;
29720;SDS011;23665;51.044;3.748;2022-09-02T03:24:31;12.17;;;4.20;;
29720;SDS011;23665;51.044;3.748;2022-09-02T03:26:57;11.77;;;4.07;;
29720;SDS011;23665;51.044;3.748;2022-09-02T03:29:22;7.80;;;3.40;;
29720;SDS011;23665;51.044;3.748;2022-09-02T03:31:48;8.87;;;4.03;;
29720;SDS011;23665;51.044;3.748;2022-09-02T03:34:14;11.70;;;4.00;;
29720;SDS011;23665;51.044;3.748;2022-09-02T03:36:40;5.97;;;3.17;;
29720;SDS011;23665;51.044;3.748;2022-09-02T03:39:08;11.18;;;4.70;;
29720;SDS011;23665;51.044;3.748;2022-09-02T03:41:35;9.43;;;3.83;;
29720;SDS011;23665;51.044;3.748;2022-09-02T03:44:02;9.10;;;3.90;;
29720;SDS011;23665;51.044;3.748;2022-09-02T03:46:29;10.93;;;4.47;;
29720;SDS011;23665;51.044;3.748;2022-09-02T03:48:55;12.70;;;4.60;;
29720;SDS011;23665;51.044;3.748;2022-09-02T03:51:21;8.03;;;3.60;;
29720;SDS011;23665;51.044;3.748;2022-09-02T03:53:48;8.17;;;3.67;;
29720;SDS011;23665;51.044;3.748;2022-09-02T03:56:14;12.83;;;4.50;;
29720;SDS011;23665;51.044;3.748;2022-09-02T03:58:41;10.57;;;4.20;;
29720;SDS011;23665;51.044;3.748;2022-09-02T04:01:12;11.20;;;4.10;;
29720;SDS011;23665;51.044;3.748;2022-09-02T04:03:39;12.43;;;4.33;;
29720;SDS011;23665;51.044;3.748;2022-09-02T04:06:07;14.20;;;5.00;;
29720;SDS011;23665;51.044;3.748;2022-09-02T04:08:37;9.27;;;4.83;;
29720;SDS011;23665;51.044;3.748;2022-09-02T04:11:05;10.90;;;4.40;;
29720;SDS011;23665;51.044;3.748;2022-09-02T04:13:32;10.70;;;4.20;;
29720;SDS011;23665;51.044;3.748;2022-09-02T04:15:59;9.40;;;4.37;;
29720;SDS011;23665;51.044;3.748;2022-09-02T04:18:34;12.50;;;4.77;;
29720;SDS011;23665;51.044;3.748;2022-09-02T04:21:00;9.90;;;4.50;;
29720;SDS011;23665;51.044;3.748;2022-09-02T04:23:26;8.87;;;3.87;;
29720;SDS011;23665;51.044;3.748;2022-09-02T04:25:52;11.43;;;4.27;;
29720;SDS011;23665;51.044;3.748;2022-09-02T04:28:18;8.47;;;4.20;;
29720;SDS011;23665;51.044;3.748;2022-09-02T04:30:45;10.57;;;4.63;;
29720;SDS011;23665;51.044;3.748;2022-09-02T04:33:11;9.50;;;3.67;;
29720;SDS011;23665;51.044;3.748;2022-09-02T04:35:41;13.20;;;4.73;;
29720;SDS011;23665;51.044;3.748;2022-09-02T04:38:08;10.20;;;4.27;;
29720;SDS011;23665;51.044;3.748;2022-09-02T04:40:38;10.43;;;4.43;;
29720;SDS011;23665;51.044;3.748;2022-09-02T04:43:08;11.00;;;4.40;;
29720;SDS011;23665;51.044;3.748;2022-09-02T04:45:34;12.33;;;5.13;;
29720;SDS011;23665;51.044;3.748;2022-09-02T04:48:00;14.30;;;5.37;;
29720;SDS011;23665;51.044;3.748;2022-09-02T04:50:26;12.40;;;4.80;;
29720;SDS011;23665;51.044;3.748;2022-09-02T04:52:52;9.83;;;3.97;;
29720;SDS011;23665;51.044;3.748;2022-09-02T04:55:18;13.17;;;5.00;;
29720;SDS011;23665;51.044;3.748;2022-09-02T04:57:44;9.70;;;4.63;;
29720;SDS011;23665;51.044;3.748;2022-09-02T05:00:10;13.23;;;4.70;;
29720;SDS011;23665;51.044;3.748;2022-09-02T05:02:35;8.80;;;4.70;;
29720;SDS011;23665;51.044;3.748;2022-09-02T05:05:01;15.73;;;4.70;;
29720;SDS011;23665;51.044;3.748;2022-09-02T05:07:27;14.70;;;5.37;;
29720;SDS011;23665;51.044;3.748;2022-09-02T05:09:57;13.30;;;4.93;;
29720;SDS011;23665;51.044;3.748;2022-09-02T05:12:24;8.17;;;4.80;;
29720;SDS011;23665;51.044;3.748;2022-09-02T05:14:53;11.80;;;5.17;;
29720;SDS011;23665;51.044;3.748;2022-09-02T05:17:21;10.60;;;4.87;;
29720;SDS011;23665;51.044;3.748;2022-09-02T05:19:47;11.47;;;4.27;;
29720;SDS011;23665;51.044;3.748;2022-09-02T05:22:13;13.30;;;4.90;;
29720;SDS011;23665;51.044;3.748;2022-09-02T05:24:39;20.60;;;4.80;;
29720;SDS011;23665;51.044;3.748;2022-09-02T05:27:06;11.43;;;4.60;;
29720;SDS011;23665;51.044;3.748;2022-09-02T05:29:32;11.60;;;4.57;;
29720;SDS011;23665;51.044;3.748;2022-09-02T05:31:58;14.97;;;4.53;;
29720;SDS011;23665;51.044;3.748;2022-09-02T05:34:24;17.17;;;4.83;;
29720;SDS011;23665;51.044;3.748;2022-09-02T05:36:50;13.70;;;4.77;;
29720;SDS011;23665;51.044;3.748;2022-09-02T05:39:15;8.27;;;4.90;;
29720;SDS011;23665;51.044;3.748;2022-09-02T05:41:41;10.57;;;5.17;;
29720;SDS011;23665;51.044;3.748;2022-09-02T05:44:07;10.43;;;4.60;;
29720;SDS011;23665;51.044;3.748;2022-09-02T05:46:33;9.23;;;4.57;;
29720;SDS011;23665;51.044;3.748;2022-09-02T05:49:00;13.70;;;5.13;;
29720;SDS011;23665;51.044;3.748;2022-09-02T05:54:06;14.70;;;5.43;;
29720;SDS011;23665;51.044;3.748;2022-09-02T05:56:36;9.50;;;4.33;;
29720;SDS011;23665;51.044;3.748;2022-09-02T05:59:06;9.53;;;5.20;;
29720;SDS011;23665;51.044;3.748;2022-09-02T06:01:33;11.30;;;5.30;;
29720;SDS011;23665;51.044;3.748;2022-09-02T06:03:59;9.63;;;4.43;;
29720;SDS011;23665;51.044;3.748;2022-09-02T06:06:26;11.80;;;5.07;;
29720;SDS011;23665;51.044;3.748;2022-09-02T06:08:55;10.27;;;4.77;;
29720;SDS011;23665;51.044;3.748;2022-09-02T06:11:22;10.67;;;4.53;;
29720;SDS011;23665;51.044;3.748;2022-09-02T06:13:48;13.43;;;5.43;;
29720;SDS011;23665;51.044;3.748;2022-09-02T06:16:16;10.67;;;5.40;;
29720;SDS011;23665;51.044;3.748;2022-09-02T06:18:44;16.53;;;5.77;;
29720;SDS011;23665;51.044;3.748;2022-09-02T06:21:10;17.83;;;5.60;;
29720;SDS011;23665;51.044;3.748;2022-09-02T06:23:37;9.23;;;4.40;;
29720;SDS011;23665;51.044;3.748;2022-09-02T06:26:04;13.77;;;4.60;;
29720;SDS011;23665;51.044;3.748;2022-09-02T06:28:31;9.47;;;4.33;;
29720;SDS011;23665;51.044;3.748;2022-09-02T06:30:57;8.57;;;4.80;;
29720;SDS011;23665;51.044;3.748;2022-09-02T06:33:23;8.83;;;4.20;;
29720;SDS011;23665;51.044;3.748;2022-09-02T06:35:49;13.07;;;4.30;;
29720;SDS011;23665;51.044;3.748;2022-09-02T06:38:15;9.97;;;4.43;;
29720;SDS011;23665;51.044;3.748;2022-09-02T06:40:48;12.03;;;4.57;;
29720;SDS011;23665;51.044;3.748;2022-09-02T06:43:18;13.13;;;4.37;;
29720;SDS011;23665;51.044;3.748;2022-09-02T06:45:44;14.10;;;4.90;;
29720;SDS011;23665;51.044;3.748;2022-09-02T06:48:10;14.83;;;5.20;;
29720;SDS011;23665;51.044;3.748;2022-09-02T06:50:40;12.63;;;5.10;;
29720;SDS011;23665;51.044;3.748;2022-09-02T06:53:08;22.83;;;5.43;;
29720;SDS011;23665;51.044;3.748;2022-09-02T06:55:36;14.07;;;5.23;;
29720;SDS011;23665;51.044;3.748;2022-09-02T06:58:03;19.80;;;4.73;;
29720;SDS011;23665;51.044;3.748;2022-09-02T07:00:29;14.00;;;4.60;;
29720;SDS011;23665;51.044;3.748;2022-09-02T07:02:56;11.77;;;5.47;;
29720;SDS011;23665;51.044;3.748;2022-09-02T07:05:41;15.43;;;4.97;;
29720;SDS011;23665;51.044;3.748;2022-09-02T07:08:07;13.07;;;4.77;;
29720;SDS011;23665;51.044;3.748;2022-09-02T07:10:36;9.03;;;4.70;;
29720;SDS011;23665;51.044;3.748;2022-09-02T07:13:03;13.30;;;4.30;;
29720;SDS011;23665;51.044;3.748;2022-09-02T07:15:30;7.70;;;5.37;;
29720;SDS011;23665;51.044;3.748;2022-09-02T07:17:55;11.40;;;4.37;;
29720;SDS011;23665;51.044;3.748;2022-09-02T07:20:21;9.97;;;4.97;;
29720;SDS011;23665;51.044;3.748;2022-09-02T07:22:47;12.87;;;5.00;;
29720;SDS011;23665;51.044;3.748;2022-09-02T07:25:13;9.40;;;4.37;;
29720;SDS011;23665;51.044;3.748;2022-09-02T07:27:40;8.07;;;4.50;;
29720;SDS011;23665;51.044;3.748;2022-09-02T07:30:07;8.50;;;5.07;;
29720;SDS011;23665;51.044;3.748;2022-09-02T07:32:34;11.67;;;5.33;;
29720;SDS011;23665;51.044;3.748;2022-09-02T07:35:01;9.43;;;4.73;;
29720;SDS011;23665;51.044;3.748;2022-09-02T07:37:28;8.90;;;4.40;;
29720;SDS011;23665;51.044;3.748;2022-09-02T07:39:54;11.43;;;4.43;;
29720;SDS011;23665;51.044;3.748;2022-09-02T07:42:20;11.37;;;4.33;;
29720;SDS011;23665;51.044;3.748;2022-09-02T07:44:46;15.40;;;4.40;;
29720;SDS011;23665;51.044;3.748;2022-09-02T07:47:11;12.07;;;4.53;;
29720;SDS011;23665;51.044;3.748;2022-09-02T07:49:37;10.07;;;4.47;;
29720;SDS011;23665;51.044;3.748;2022-09-02T07:52:03;9.57;;;4.00;;
29720;SDS011;23665;51.044;3.748;2022-09-02T07:54:29;16.60;;;5.40;;
29720;SDS011;23665;51.044;3.748;2022-09-02T07:56:56;9.30;;;4.30;;
29720;SDS011;23665;51.044;3.748;2022-09-02T10:42:45;2.70;;;1.63;;
29720;SDS011;23665;51.044;3.748;2022-09-02T10:45:45;14.50;;;2.33;;
29720;SDS011;23665;51.044;3.748;2022-09-02T10:56:18;3.87;;;2.20;;
29720;SDS011;23665;51.044;3.748;2022-09-02T11:04:37;5.00;;;2.00;;
29720;SDS011;23665;51.044;3.748;2022-09-02T11:07:20;4.07;;;1.90;;
29720;SDS011;23665;51.044;3.748;2022-09-02T11:09:54;3.13;;;1.80;;
29720;SDS011;23665;51.044;3.748;2022-09-02T11:12:40;4.23;;;2.27;;
29720;SDS011;23665;51.044;3.748;2022-09-02T11:15:18;8.00;;;2.00;;
29720;SDS011;23665;51.044;3.748;2022-09-02T11:17:59;5.03;;;2.20;;
29720;SDS011;23665;51.044;3.748;2022-09-02T11:20:35;5.00;;;2.20;;
29720;SDS011;23665;51.044;3.748;2022-09-02T11:23:15;10.50;;;2.97;;
29720;SDS011;23665;51.044;3.748;2022-09-02T11:25:54;4.33;;;2.03;;
29720;SDS011;23665;51.044;3.748;2022-09-02T11:29:12;3.00;;;1.77;;
29720;SDS011;23665;51.044;3.748;2022-09-02T11:34:33;5.50;;;1.97;;
29720;SDS011;23665;51.044;3.748;2022-09-02T11:37:10;3.70;;;1.87;;
29720;SDS011;23665;51.044;3.748;2022-09-02T11:40:01;4.90;;;1.77;;
29720;SDS011;23665;51.044;3.748;2022-09-02T11:42:36;16.93;;;3.50;;
29720;SDS011;23665;51.044;3.748;2022-09-02T11:47:59;4.17;;;2.10;;
29720;SDS011;23665;51.044;3.748;2022-09-02T11:50:45;4.17;;;1.90;;
29720;SDS011;23665;51.044;3.748;2022-09-02T11:53:37;6.90;;;1.80;;
29720;SDS011;23665;51.044;3.748;2022-09-02T11:56:16;4.63;;;2.10;;
29720;SDS011;23665;51.044;3.748;2022-09-02T11:58:46;6.80;;;2.27;;
29720;SDS011;23665;51.044;3.748;2022-09-02T12:01:18;3.47;;;1.90;;
29720;SDS011;23665;51.044;3.748;2022-09-02T12:06:21;5.03;;;2.67;;
29720;SDS011;23665;51.044;3.748;2022-09-02T12:16:59;2.67;;;1.73;;
29720;SDS011;23665;51.044;3.748;2022-09-02T12:19:50;12.53;;;1.90;;
29720;SDS011;23665;51.044;3.748;2022-09-02T12:24:51;4.50;;;2.13;;
29720;SDS011;23665;51.044;3.748;2022-09-02T12:30:14;3.80;;;1.80;;
29720;SDS011;23665;51.044;3.748;2022-09-02T12:33:04;2.40;;;1.77;;
29720;SDS011;23665;51.044;3.748;2022-09-02T12:40:54;4.80;;;1.90;;
29720;SDS011;23665;51.044;3.748;2022-09-02T12:54:23;7.27;;;2.00;;
29720;SDS011;23665;51.044;3.748;2022-09-02T12:56:58;3.67;;;1.40;;
29720;SDS011;23665;51.044;3.748;2022-09-02T12:59:34;2.37;;;1.43;;
29720;SDS011;23665;51.044;3.748;2022-09-02T13:05:11;6.00;;;2.13;;
29720;SDS011;23665;51.044;3.748;2022-09-02T13:07:49;6.87;;;1.77;;
29720;SDS011;23665;51.044;3.748;2022-09-02T13:10:30;7.00;;;3.00;;
29720;SDS011;23665;51.044;3.748;2022-09-02T13:24:42;3.83;;;1.80;;
29720;SDS011;23665;51.044;3.748;2022-09-02T13:32:49;4.70;;;1.87;;
29720;SDS011;23665;51.044;3.748;2022-09-02T13:35:23;8.00;;;2.30;;
29720;SDS011;23665;51.044;3.748;2022-09-02T13:38:08;20.13;;;3.83;;
29720;SDS011;23665;51.044;3.748;2022-09-02T13:40:36;8.07;;;2.60;;
29720;SDS011;23665;51.044;3.748;2022-09-02T13:43:08;8.87;;;2.00;;
29720;SDS011;23665;51.044;3.748;2022-09-02T13:45:40;4.10;;;1.83;;
29720;SDS011;23665;51.044;3.748;2022-09-02T13:48:08;3.13;;;1.87;;
29720;SDS011;23665;51.044;3.748;2022-09-02T13:50:52;4.10;;;1.83;;
29720;SDS011;23665;51.044;3.748;2022-09-02T13:53:31;3.60;;;1.80;;
29720;SDS011;23665;51.044;3.748;2022-09-02T13:56:04;8.02;;;1.98;;
29720;SDS011;23665;51.044;3.748;2022-09-02T13:58:45;3.37;;;1.60;;
29720;SDS011;23665;51.044;3.748;2022-09-02T14:03:48;3.13;;;1.73;;
29720;SDS011;23665;51.044;3.748;2022-09-02T14:06:20;4.70;;;2.00;;
29720;SDS011;23665;51.044;3.748;2022-09-02T14:08:54;5.43;;;2.10;;
29720;SDS011;23665;51.044;3.748;2022-09-02T14:11:23;4.00;;;2.27;;
29720;SDS011;23665;51.044;3.748;2022-09-02T14:13:51;4.23;;;2.17;;
29720;SDS011;23665;51.044;3.748;2022-09-02T14:16:25;4.27;;;1.50;;
29720;SDS011;23665;51.044;3.748;2022-09-02T14:21:34;3.47;;;1.80;;
29720;SDS011;23665;51.044;3.748;2022-09-02T14:24:01;3.40;;;1.83;;
29720;SDS011;23665;51.044;3.748;2022-09-02T14:26:37;4.33;;;1.83;;
29720;SDS011;23665;51.044;3.748;2022-09-02T14:29:09;6.13;;;1.80;;
29720;SDS011;23665;51.044;3.748;2022-09-02T14:31:38;5.67;;;1.37;;
29720;SDS011;23665;51.044;3.748;2022-09-02T14:34:30;5.00;;;1.90;;
29720;SDS011;23665;51.044;3.748;2022-09-02T14:37:26;4.13;;;1.70;;
29720;SDS011;23665;51.044;3.748;2022-09-02T14:42:25;3.90;;;1.53;;
29720;SDS011;23665;51.044;3.748;2022-09-02T14:44:51;6.40;;;1.63;;
29720;SDS011;23665;51.044;3.748;2022-09-02T14:47:17;10.60;;;2.00;;
29720;SDS011;23665;51.044;3.748;2022-09-02T14:49:49;4.73;;;1.73;;
29720;SDS011;23665;51.044;3.748;2022-09-02T14:52:18;3.87;;;1.60;;
29720;SDS011;23665;51.044;3.748;2022-09-02T14:54:47;3.07;;;1.47;;
29720;SDS011;23665;51.044;3.748;2022-09-02T14:57:22;3.73;;;2.17;;
29720;SDS011;23665;51.044;3.748;2022-09-02T14:59:51;2.30;;;1.57;;
29720;SDS011;23665;51.044;3.748;2022-09-02T15:02:28;4.73;;;1.50;;
29720;SDS011;23665;51.044;3.748;2022-09-02T15:04:57;4.40;;;1.60;;
29720;SDS011;23665;51.044;3.748;2022-09-02T15:07:28;3.37;;;1.60;;
29720;SDS011;23665;51.044;3.748;2022-09-02T15:09:54;2.30;;;1.40;;
29720;SDS011;23665;51.044;3.748;2022-09-02T15:12:21;2.70;;;1.70;;
29720;SDS011;23665;51.044;3.748;2022-09-02T15:14:49;3.80;;;1.80;;
29720;SDS011;23665;51.044;3.748;2022-09-02T15:17:16;3.33;;;1.83;;
29720;SDS011;23665;51.044;3.748;2022-09-02T15:19:42;6.37;;;1.40;;
29720;SDS011;23665;51.044;3.748;2022-09-02T15:22:07;5.57;;;1.67;;
29720;SDS011;23665;51.044;3.748;2022-09-02T15:24:33;9.60;;;2.37;;
29720;SDS011;23665;51.044;3.748;2022-09-02T15:26:59;7.20;;;1.73;;
29720;SDS011;23665;51.044;3.748;2022-09-02T15:29:24;2.27;;;1.50;;
29720;SDS011;23665;51.044;3.748;2022-09-02T15:31:51;4.27;;;1.83;;
29720;SDS011;23665;51.044;3.748;2022-09-02T15:34:17;5.07;;;1.90;;
29720;SDS011;23665;51.044;3.748;2022-09-02T15:36:45;7.13;;;1.77;;
29720;SDS011;23665;51.044;3.748;2022-09-02T15:39:10;3.83;;;1.80;;
29720;SDS011;23665;51.044;3.748;2022-09-02T15:41:36;4.27;;;1.97;;
29720;SDS011;23665;51.044;3.748;2022-09-02T15:44:03;5.53;;;1.57;;
29720;SDS011;23665;51.044;3.748;2022-09-02T15:46:31;7.40;;;1.93;;
29720;SDS011;23665;51.044;3.748;2022-09-02T15:49:05;2.70;;;1.67;;
29720;SDS011;23665;51.044;3.748;2022-09-02T15:51:32;6.07;;;2.07;;
29720;SDS011;23665;51.044;3.748;2022-09-02T15:54:02;6.40;;;2.23;;
29720;SDS011;23665;51.044;3.748;2022-09-02T15:56:33;5.20;;;2.57;;
29720;SDS011;23665;51.044;3.748;2022-09-02T15:59:01;6.83;;;2.37;;
29720;SDS011;23665;51.044;3.748;2022-09-02T16:01:39;4.97;;;2.20;;
29720;SDS011;23665;51.044;3.748;2022-09-02T16:04:08;4.47;;;2.07;;
29720;SDS011;23665;51.044;3.748;2022-09-02T16:06:35;7.27;;;2.37;;
29720;SDS011;23665;51.044;3.748;2022-09-02T16:09:09;7.17;;;2.23;;
29720;SDS011;23665;51.044;3.748;2022-09-02T16:11:36;9.73;;;2.53;;
29720;SDS011;23665;51.044;3.748;2022-09-02T16:14:03;6.57;;;2.40;;
29720;SDS011;23665;51.044;3.748;2022-09-02T16:16:30;9.97;;;2.33;;
29720;SDS011;23665;51.044;3.748;2022-09-02T16:18:56;9.27;;;2.17;;
29720;SDS011;23665;51.044;3.748;2022-09-02T16:21:22;3.07;;;1.90;;
29720;SDS011;23665;51.044;3.748;2022-09-02T16:23:48;9.23;;;2.57;;
29720;SDS011;23665;51.044;3.748;2022-09-02T16:26:21;9.60;;;1.90;;
29720;SDS011;23665;51.044;3.748;2022-09-02T16:28:56;5.77;;;2.83;;
29720;SDS011;23665;51.044;3.748;2022-09-02T16:31:24;5.93;;;2.33;;
29720;SDS011;23665;51.044;3.748;2022-09-02T16:33:55;7.23;;;2.40;;
29720;SDS011;23665;51.044;3.748;2022-09-02T16:36:27;9.13;;;2.80;;
29720;SDS011;23665;51.044;3.748;2022-09-02T16:38:53;6.47;;;2.60;;
29720;SDS011;23665;51.044;3.748;2022-09-02T16:41:24;7.73;;;3.10;;
29720;SDS011;23665;51.044;3.748;2022-09-02T16:44:01;14.07;;;3.07;;
29720;SDS011;23665;51.044;3.748;2022-09-02T16:46:32;241.93;;;15.57;;
29720;SDS011;23665;51.044;3.748;2022-09-02T16:48:59;88.07;;;7.60;;
29720;SDS011;23665;51.044;3.748;2022-09-02T16:51:25;5.47;;;2.63;;
29720;SDS011;23665;51.044;3.748;2022-09-02T16:53:56;33.83;;;7.87;;
29720;SDS011;23665;51.044;3.748;2022-09-02T16:56:23;16.63;;;4.60;;
29720;SDS011;23665;51.044;3.748;2022-09-02T16:58:50;14.97;;;3.70;;
29720;SDS011;23665;51.044;3.748;2022-09-02T17:01:19;9.43;;;4.10;;
29720;SDS011;23665;51.044;3.748;2022-09-02T17:03:46;12.60;;;3.50;;
29720;SDS011;23665;51.044;3.748;2022-09-02T17:06:13;4.60;;;2.57;;
29720;SDS011;23665;51.044;3.748;2022-09-02T17:08:39;3.23;;;2.07;;
29720;SDS011;23665;51.044;3.748;2022-09-02T17:13:44;6.90;;;2.60;;
29720;SDS011;23665;51.044;3.748;2022-09-02T17:16:15;5.47;;;2.67;;
29720;SDS011;23665;51.044;3.748;2022-09-02T17:18:41;8.50;;;2.70;;
29720;SDS011;23665;51.044;3.748;2022-09-02T17:21:18;3.60;;;2.43;;
29720;SDS011;23665;51.044;3.748;2022-09-02T17:23:44;5.23;;;2.40;;
29720;SDS011;23665;51.044;3.748;2022-09-02T17:26:10;7.03;;;2.73;;
29720;SDS011;23665;51.044;3.748;2022-09-02T17:28:36;6.10;;;2.17;;
29720;SDS011;23665;51.044;3.748;2022-09-02T17:31:17;9.10;;;2.13;;
29720;SDS011;23665;51.044;3.748;2022-09-02T17:33:48;7.50;;;2.53;;
29720;SDS011;23665;51.044;3.748;2022-09-02T17:36:15;8.63;;;2.50;;
29720;SDS011;23665;51.044;3.748;2022-09-02T17:38:42;5.90;;;2.43;;
29720;SDS011;23665;51.044;3.748;2022-09-02T17:41:07;6.47;;;2.63;;
29720;SDS011;23665;51.044;3.748;2022-09-02T17:43:52;5.97;;;2.40;;
29720;SDS011;23665;51.044;3.748;2022-09-02T17:46:18;7.50;;;2.97;;
29720;SDS011;23665;51.044;3.748;2022-09-02T17:48:44;4.37;;;2.70;;
29720;SDS011;23665;51.044;3.748;2022-09-02T17:51:10;10.17;;;2.80;;
29720;SDS011;23665;51.044;3.748;2022-09-02T17:53:36;6.20;;;3.40;;
29720;SDS011;23665;51.044;3.748;2022-09-02T17:56:11;5.87;;;3.67;;
29720;SDS011;23665;51.044;3.748;2022-09-02T18:01:34;5.87;;;3.17;;
29720;SDS011;23665;51.044;3.748;2022-09-02T18:06:56;8.33;;;3.53;;
29720;SDS011;23665;51.044;3.748;2022-09-02T18:09:32;9.17;;;4.03;;
29720;SDS011;23665;51.044;3.748;2022-09-02T18:11:57;9.03;;;3.80;;
29720;SDS011;23665;51.044;3.748;2022-09-02T18:14:31;6.80;;;4.00;;
29720;SDS011;23665;51.044;3.748;2022-09-02T18:17:06;10.60;;;4.10;;
29720;SDS011;23665;51.044;3.748;2022-09-02T18:45:21;9.60;;;4.03;;
29720;SDS011;23665;51.044;3.748;2022-09-02T18:50:28;9.30;;;3.33;;
29720;SDS011;23665;51.044;3.748;2022-09-02T18:52:59;9.40;;;3.30;;
29720;SDS011;23665;51.044;3.748;2022-09-02T18:55:32;6.17;;;3.40;;
29720;SDS011;23665;51.044;3.748;2022-09-02T18:58:09;6.57;;;4.00;;
29720;SDS011;23665;51.044;3.748;2022-09-02T19:00:50;5.67;;;3.50;;
29720;SDS011;23665;51.044;3.748;2022-09-02T19:03:19;8.73;;;3.30;;
29720;SDS011;23665;51.044;3.748;2022-09-02T19:05:44;4.17;;;2.70;;
29720;SDS011;23665;51.044;3.748;2022-09-02T19:08:16;6.93;;;3.30;;
29720;SDS011;23665;51.044;3.748;2022-09-02T19:11:04;12.17;;;3.37;;
29720;SDS011;23665;51.044;3.748;2022-09-02T19:13:43;5.47;;;3.47;;
29720;SDS011;23665;51.044;3.748;2022-09-02T19:16:29;7.07;;;3.40;;
29720;SDS011;23665;51.044;3.748;2022-09-02T19:18:57;5.33;;;3.30;;
29720;SDS011;23665;51.044;3.748;2022-09-02T19:23:48;3.93;;;2.60;;
29720;SDS011;23665;51.044;3.748;2022-09-02T19:26:14;5.80;;;3.57;;
29720;SDS011;23665;51.044;3.748;2022-09-02T19:28:40;6.90;;;3.10;;
29720;SDS011;23665;51.044;3.748;2022-09-02T19:31:08;4.20;;;3.07;;
29720;SDS011;23665;51.044;3.748;2022-09-02T19:33:37;6.20;;;3.00;;
29720;SDS011;23665;51.044;3.748;2022-09-02T19:36:03;5.17;;;3.20;;
29720;SDS011;23665;51.044;3.748;2022-09-02T19:38:29;8.57;;;3.17;;
29720;SDS011;23665;51.044;3.748;2022-09-02T19:40:55;7.17;;;3.70;;
29720;SDS011;23665;51.044;3.748;2022-09-02T19:43:20;5.37;;;3.63;;